Terminal Aerodrome Forecast
Issued by NWS

Home | Current Version | Previous Version | Text Only | Print | Product List | Glossary Off
Versions: 1 2 3 4 5 6 7 8 9 10 11 12 13 14 15 16 17 18 19

243
FTUS43 KMPX 032341
TAFRNH
TAF
KRNH 032341Z 0400/0424 31008KT P6SM SCT300
     FM040400 27004KT P6SM BKN070
     FM041200 18004KT 4SM -SN BR OVC020
      TEMPO 0413/0417 1 1/2SM -SN BR OVC010
     FM042000 26006KT P6SM OVC015=

USA.gov is the U.S. government's official web portal to all federal, state and local government web resources and services.